EWG26K LCLK-EDDH
Flight info
| Callsign | EWG26K |
|---|---|
| Flight time | N/A |
| Altitude | 32000 |
| Route | RUDER1D RUDER M13 BAPAX DCT VESAR UL619 OSVEL UQ23 OSDAN UQ26 TUDBU DCT AMTOV DCT UPAMA DCT APROB DCT VIKBI DCT LAMIT DCT EKNAB DCT DEGET DCT MAVOR DCT KATQA DCT ODLIV DCT HDO DCT SOGMA M748 RARUP RARUP6A |
| Aircraft | A320/M-SDE3FGHIRWY/LB1 |
Departure
| Time | 2026-04-27 14:36 |
|---|---|
| Airport | Larnaca International Airport (LCLK) |
Arrival
| Time | N/A |
|---|---|
| Airport | Hamburg Helmut Schmidt Airport (EDDH) |
| Time | Latitude | Longitude | Altitude | Speed | Heading |
|---|---|---|---|---|---|
| 2026-04-27 13:58 | 34.86948 | 33.61141 | 15 ft | 0 kts | 230° |
| 2026-04-27 14:20 | 34.86964 | 33.61163 | 16 ft | 4 kts | 225° |
| 2026-04-27 14:20 | 34.86984 | 33.61186 | 16 ft | 4 kts | 216° |
| 2026-04-27 14:20 | 34.87007 | 33.61202 | 17 ft | 4 kts | 195° |
| 2026-04-27 14:20 | 34.87029 | 33.61202 | 15 ft | 3 kts | 139° |
| 2026-04-27 14:21 | 34.87031 | 33.61200 | 18 ft | 0 kts | 135° |
| 2026-04-27 14:24 | 34.87030 | 33.61202 | 17 ft | 2 kts | 135° |
| 2026-04-27 14:24 | 34.87012 | 33.61224 | 16 ft | 9 kts | 134° |
| 2026-04-27 14:24 | 34.86973 | 33.61274 | 15 ft | 7 kts | 134° |
| 2026-04-27 14:25 | 34.86944 | 33.61308 | 15 ft | 5 kts | 136° |
| 2026-04-27 14:25 | 34.86923 | 33.61332 | 15 ft | 4 kts | 136° |
| 2026-04-27 14:25 | 34.86894 | 33.61366 | 15 ft | 9 kts | 134° |
| 2026-04-27 14:25 | 34.86903 | 33.61455 | 16 ft | 16 kts | 48° |
| 2026-04-27 14:26 | 34.86995 | 33.61568 | 16 ft | 21 kts | 45° |
| 2026-04-27 14:26 | 34.87105 | 33.61703 | 14 ft | 22 kts | 44° |
| 2026-04-27 14:26 | 34.87216 | 33.61836 | 15 ft | 22 kts | 45° |
| 2026-04-27 14:26 | 34.87321 | 33.61966 | 14 ft | 21 kts | 45° |
| 2026-04-27 14:27 | 34.87415 | 33.62082 | 13 ft | 18 kts | 45° |
| 2026-04-27 14:27 | 34.87498 | 33.62184 | 13 ft | 16 kts | 45° |
| 2026-04-27 14:27 | 34.87571 | 33.62275 | 14 ft | 14 kts | 46° |
| 2026-04-27 14:27 | 34.87636 | 33.62350 | 13 ft | 12 kts | 44° |
| 2026-04-27 14:28 | 34.87690 | 33.62415 | 13 ft | 10 kts | 45° |
| 2026-04-27 14:28 | 34.87734 | 33.62470 | 13 ft | 8 kts | 45° |
| 2026-04-27 14:28 | 34.87770 | 33.62515 | 14 ft | 7 kts | 45° |
| 2026-04-27 14:28 | 34.87825 | 33.62583 | 12 ft | 16 kts | 45° |
| 2026-04-27 14:29 | 34.87918 | 33.62694 | 12 ft | 21 kts | 45° |
| 2026-04-27 14:29 | 34.88016 | 33.62816 | 12 ft | 19 kts | 45° |
| 2026-04-27 14:29 | 34.88104 | 33.62922 | 12 ft | 17 kts | 45° |
| 2026-04-27 14:29 | 34.88180 | 33.63014 | 11 ft | 15 kts | 45° |
| 2026-04-27 14:30 | 34.88247 | 33.63095 | 12 ft | 13 kts | 45° |
| 2026-04-27 14:30 | 34.88294 | 33.63153 | 12 ft | 6 kts | 45° |
| 2026-04-27 14:30 | 34.88318 | 33.63182 | 11 ft | 4 kts | 45° |
| 2026-04-27 14:30 | 34.88333 | 33.63200 | 12 ft | 2 kts | 45° |
| 2026-04-27 14:31 | 34.88340 | 33.63209 | 11 ft | 1 kts | 45° |
| 2026-04-27 14:31 | 34.88347 | 33.63218 | 11 ft | 2 kts | 45° |
| 2026-04-27 14:31 | 34.88356 | 33.63229 | 11 ft | 2 kts | 45° |
| 2026-04-27 14:31 | 34.88372 | 33.63248 | 11 ft | 6 kts | 45° |
| 2026-04-27 14:32 | 34.88429 | 33.63319 | 10 ft | 13 kts | 48° |
| 2026-04-27 14:32 | 34.88427 | 33.63405 | 11 ft | 10 kts | 137° |
| 2026-04-27 14:32 | 34.88405 | 33.63430 | 12 ft | 0 kts | 136° |
| 2026-04-27 14:34 | 34.88396 | 33.63441 | 11 ft | 3 kts | 134° |
| 2026-04-27 14:34 | 34.88372 | 33.63473 | 11 ft | 7 kts | 134° |
| 2026-04-27 14:34 | 34.88325 | 33.63514 | 11 ft | 10 kts | 163° |
| 2026-04-27 14:34 | 34.88265 | 33.63478 | 10 ft | 9 kts | 225° |
| 2026-04-27 14:35 | 34.88260 | 33.63473 | 10 ft | 0 kts | 225° |
| 2026-04-27 14:35 | 34.88247 | 33.63457 | 11 ft | 19 kts | 225° |
| 2026-04-27 14:35 | 34.87982 | 33.63134 | 13 ft | 85 kts | 225° |
| 2026-04-27 14:35 | 34.87448 | 33.62482 | 13 ft | 134 kts | 225° |
| 2026-04-27 14:36 | 34.86696 | 33.61563 | 125 ft | 165 kts | 224° |
| 2026-04-27 14:36 | 34.85890 | 33.60588 | 750 ft | 165 kts | 224° |
| 2026-04-27 14:36 | 34.85074 | 33.59601 | 1349 ft | 167 kts | 224° |
| 2026-04-27 14:36 | 34.84209 | 33.58539 | 1573 ft | 187 kts | 225° |
| 2026-04-27 14:37 | 34.83237 | 33.57346 | 1732 ft | 209 kts | 226° |
| 2026-04-27 14:37 | 34.82127 | 33.56079 | 1940 ft | 231 kts | 214° |
| 2026-04-27 14:37 | 34.80529 | 33.55553 | 2179 ft | 255 kts | 174° |
| 2026-04-27 14:37 | 34.78831 | 33.56318 | 2573 ft | 268 kts | 144° |
| 2026-04-27 14:38 | 34.77369 | 33.57756 | 3241 ft | 272 kts | 135° |
| 2026-04-27 14:38 | 34.76018 | 33.59373 | 3980 ft | 274 kts | 132° |
| 2026-04-27 14:38 | 34.75106 | 33.60491 | 4452 ft | 277 kts | 132° |
| 2026-04-27 14:38 | 34.73718 | 33.62142 | 5153 ft | 280 kts | 134° |
| 2026-04-27 14:39 | 34.72284 | 33.63764 | 5884 ft | 282 kts | 135° |
| 2026-04-27 14:39 | 34.70814 | 33.65349 | 6615 ft | 283 kts | 136° |
| 2026-04-27 14:39 | 34.69315 | 33.66915 | 7312 ft | 285 kts | 137° |
| 2026-04-27 14:39 | 34.67796 | 33.68473 | 8002 ft | 287 kts | 137° |
| 2026-04-27 14:40 | 34.66256 | 33.70035 | 8679 ft | 290 kts | 137° |
| 2026-04-27 14:40 | 34.64769 | 33.71695 | 9336 ft | 290 kts | 126° |
| 2026-04-27 14:40 | 34.63781 | 33.73802 | 9978 ft | 287 kts | 105° |
| 2026-04-27 14:40 | 34.63440 | 33.76198 | 10357 ft | 296 kts | 86° |
| 2026-04-27 14:41 | 34.63850 | 33.78708 | 10472 ft | 313 kts | 67° |
| 2026-04-27 14:41 | 34.64697 | 33.81239 | 10593 ft | 333 kts | 66° |
| 2026-04-27 14:41 | 34.65598 | 33.83918 | 10719 ft | 352 kts | 66° |
| 2026-04-27 14:41 | 34.66538 | 33.86735 | 10917 ft | 366 kts | 67° |
| 2026-04-27 14:42 | 34.67494 | 33.89631 | 11364 ft | 372 kts | 67° |
| 2026-04-27 14:42 | 34.68459 | 33.92573 | 11841 ft | 377 kts | 67° |
| 2026-04-27 14:42 | 34.69433 | 33.95553 | 12356 ft | 382 kts | 67° |
| 2026-04-27 14:42 | 34.70416 | 33.98571 | 12825 ft | 387 kts | 67° |
| 2026-04-27 14:43 | 34.71412 | 34.01625 | 13308 ft | 391 kts | 67° |
| 2026-04-27 14:43 | 34.72583 | 34.04623 | 13746 ft | 394 kts | 57° |
| 2026-04-27 14:43 | 34.74287 | 34.07236 | 14170 ft | 396 kts | 43° |
| 2026-04-27 14:43 | 34.76454 | 34.09286 | 14608 ft | 396 kts | 30° |
| 2026-04-27 14:44 | 34.78958 | 34.10675 | 15058 ft | 397 kts | 16° |
| 2026-04-27 14:44 | 34.81663 | 34.11321 | 15517 ft | 397 kts | 4° |
| 2026-04-27 14:44 | 34.84426 | 34.11556 | 15955 ft | 399 kts | 3° |
| 2026-04-27 14:44 | 34.87209 | 34.11789 | 16372 ft | 402 kts | 3° |
| 2026-04-27 14:45 | 34.90005 | 34.12027 | 16812 ft | 404 kts | 4° |
| 2026-04-27 14:45 | 34.92816 | 34.12272 | 17243 ft | 406 kts | 4° |
| 2026-04-27 14:45 | 34.95644 | 34.12520 | 17651 ft | 409 kts | 4° |
| 2026-04-27 14:45 | 34.98493 | 34.12745 | 18067 ft | 411 kts | 3° |
| 2026-04-27 14:46 | 35.01355 | 34.12937 | 18456 ft | 413 kts | 2° |
| 2026-04-27 14:46 | 35.04230 | 34.13113 | 18791 ft | 416 kts | 2° |
| 2026-04-27 14:46 | 35.07132 | 34.13285 | 19108 ft | 419 kts | 2° |
| 2026-04-27 14:46 | 35.10051 | 34.13460 | 19441 ft | 421 kts | 2° |
| 2026-04-27 14:47 | 35.12978 | 34.13642 | 19785 ft | 423 kts | 3° |
| 2026-04-27 14:47 | 35.15924 | 34.13834 | 19904 ft | 424 kts | 3° |
| 2026-04-27 14:47 | 35.18867 | 34.14028 | 19925 ft | 424 kts | 3° |
| 2026-04-27 14:47 | 35.21808 | 34.14222 | 19922 ft | 423 kts | 3° |
| 2026-04-27 14:48 | 35.24750 | 34.14417 | 19932 ft | 423 kts | 3° |
| 2026-04-27 14:48 | 35.30644 | 34.14808 | 20233 ft | 426 kts | 3° |
| 2026-04-27 14:48 | 35.33606 | 34.15004 | 20584 ft | 428 kts | 3° |
| 2026-04-27 14:49 | 35.36586 | 34.15196 | 20926 ft | 429 kts | 3° |
| 2026-04-27 14:49 | 35.39574 | 34.15388 | 21242 ft | 431 kts | 3° |
| 2026-04-27 14:49 | 35.42578 | 34.15582 | 21554 ft | 433 kts | 3° |
| 2026-04-27 14:49 | 35.45596 | 34.15783 | 21865 ft | 435 kts | 3° |
| 2026-04-27 14:50 | 35.48625 | 34.15985 | 22170 ft | 437 kts | 3° |
| 2026-04-27 14:50 | 35.51670 | 34.16186 | 22476 ft | 439 kts | 3° |
| 2026-04-27 14:50 | 35.54727 | 34.16387 | 22777 ft | 441 kts | 3° |
| 2026-04-27 14:50 | 35.57796 | 34.16591 | 23076 ft | 443 kts | 3° |
| 2026-04-27 14:51 | 35.60874 | 34.16798 | 23367 ft | 444 kts | 3° |
| 2026-04-27 14:51 | 35.63969 | 34.17005 | 23632 ft | 446 kts | 3° |
| 2026-04-27 14:51 | 35.67074 | 34.16979 | 23845 ft | 448 kts | 354° |
| 2026-04-27 14:51 | 35.70155 | 34.16321 | 24072 ft | 450 kts | 345° |
| 2026-04-27 14:52 | 35.73108 | 34.15044 | 24299 ft | 452 kts | 336° |
| 2026-04-27 14:52 | 35.75843 | 34.13234 | 24515 ft | 453 kts | 329° |
| 2026-04-27 14:52 | 35.78590 | 34.11204 | 24745 ft | 455 kts | 329° |
| 2026-04-27 14:52 | 35.81270 | 34.09225 | 24957 ft | 456 kts | 329° |
| 2026-04-27 14:53 | 35.83994 | 34.07213 | 25168 ft | 457 kts | 329° |
| 2026-04-27 14:53 | 35.86727 | 34.05195 | 25389 ft | 458 kts | 329° |
| 2026-04-27 14:53 | 35.89462 | 34.03169 | 25600 ft | 460 kts | 329° |
| 2026-04-27 14:53 | 35.92209 | 34.01131 | 25804 ft | 461 kts | 329° |
| 2026-04-27 14:54 | 35.94959 | 33.99078 | 26015 ft | 463 kts | 329° |
| 2026-04-27 14:54 | 35.97707 | 33.97009 | 26211 ft | 464 kts | 329° |
| 2026-04-27 14:54 | 36.00457 | 33.94924 | 26466 ft | 463 kts | 329° |
| 2026-04-27 14:54 | 36.03195 | 33.92840 | 26800 ft | 462 kts | 329° |
| 2026-04-27 14:55 | 36.05929 | 33.90761 | 27108 ft | 460 kts | 329° |
| 2026-04-27 14:55 | 36.08652 | 33.88694 | 27410 ft | 459 kts | 329° |
| 2026-04-27 14:55 | 36.11373 | 33.86637 | 27702 ft | 458 kts | 329° |
| 2026-04-27 14:55 | 36.14094 | 33.84585 | 27998 ft | 458 kts | 329° |
| 2026-04-27 14:56 | 36.16808 | 33.82531 | 28295 ft | 457 kts | 329° |
| 2026-04-27 14:56 | 36.19511 | 33.80478 | 28634 ft | 455 kts | 329° |
| 2026-04-27 14:56 | 36.22203 | 33.78427 | 28938 ft | 454 kts | 329° |
| 2026-04-27 14:56 | 36.24887 | 33.76381 | 29282 ft | 452 kts | 329° |
| 2026-04-27 14:57 | 36.27558 | 33.74344 | 29623 ft | 450 kts | 329° |
| 2026-04-27 14:57 | 36.30222 | 33.72312 | 29890 ft | 450 kts | 329° |
| 2026-04-27 14:57 | 36.32890 | 33.70278 | 30123 ft | 450 kts | 329° |
| 2026-04-27 14:57 | 36.35555 | 33.68245 | 30376 ft | 449 kts | 328° |
| 2026-04-27 14:58 | 36.38217 | 33.66214 | 30611 ft | 449 kts | 328° |
| 2026-04-27 14:58 | 36.40873 | 33.64185 | 30864 ft | 448 kts | 328° |
| 2026-04-27 14:58 | 36.43522 | 33.62159 | 31101 ft | 447 kts | 328° |
| 2026-04-27 14:58 | 36.46164 | 33.60135 | 31394 ft | 445 kts | 328° |
| 2026-04-27 14:59 | 36.48798 | 33.58121 | 31667 ft | 444 kts | 328° |
| 2026-04-27 14:59 | 36.51424 | 33.56114 | 31882 ft | 443 kts | 328° |
| 2026-04-27 14:59 | 36.56668 | 33.52086 | 31950 ft | 442 kts | 327° |
| 2026-04-27 15:00 | 36.61909 | 33.48047 | 31962 ft | 444 kts | 327° |
| 2026-04-27 15:00 | 36.67155 | 33.43997 | 31964 ft | 444 kts | 328° |
| 2026-04-27 15:01 | 36.72414 | 33.39941 | 31979 ft | 444 kts | 327° |
| 2026-04-27 15:01 | 36.77641 | 33.35908 | 31967 ft | 440 kts | 327° |
| 2026-04-27 15:02 | 36.82842 | 33.31878 | 31984 ft | 440 kts | 327° |
| 2026-04-27 15:02 | 36.87688 | 33.27293 | 31996 ft | 437 kts | 313° |
| 2026-04-27 15:03 | 36.91802 | 33.21712 | 31998 ft | 436 kts | 312° |
| 2026-04-27 15:03 | 36.95910 | 33.16138 | 32007 ft | 436 kts | 312° |
| 2026-04-27 15:04 | 37.00014 | 33.10547 | 32001 ft | 437 kts | 312° |
| 2026-04-27 15:04 | 37.04123 | 33.04933 | 32014 ft | 438 kts | 312° |
| 2026-04-27 15:05 | 37.08215 | 32.99334 | 31995 ft | 439 kts | 312° |
| 2026-04-27 15:05 | 37.12348 | 32.93674 | 32001 ft | 441 kts | 312° |
| 2026-04-27 15:06 | 37.16502 | 32.87990 | 32007 ft | 442 kts | 312° |
| 2026-04-27 15:06 | 37.20655 | 32.82297 | 32022 ft | 442 kts | 312° |
| 2026-04-27 15:07 | 37.24795 | 32.76591 | 32027 ft | 442 kts | 312° |
| 2026-04-27 15:07 | 37.28931 | 32.70876 | 32035 ft | 442 kts | 312° |
| 2026-04-27 15:08 | 37.33065 | 32.65161 | 32030 ft | 442 kts | 312° |
| 2026-04-27 15:08 | 37.37201 | 32.59444 | 32040 ft | 442 kts | 312° |
| 2026-04-27 15:09 | 37.41336 | 32.53713 | 32028 ft | 443 kts | 311° |
| 2026-04-27 15:09 | 37.45473 | 32.47968 | 32050 ft | 443 kts | 311° |
| 2026-04-27 15:10 | 37.49605 | 32.42208 | 32035 ft | 443 kts | 311° |
| 2026-04-27 15:10 | 37.53745 | 32.36435 | 32043 ft | 444 kts | 311° |
| 2026-04-27 15:11 | 37.57890 | 32.30650 | 32047 ft | 445 kts | 311° |
| 2026-04-27 15:11 | 37.62034 | 32.24852 | 32052 ft | 445 kts | 311° |
| 2026-04-27 15:12 | 37.66191 | 32.19044 | 32056 ft | 446 kts | 311° |
| 2026-04-27 15:12 | 37.70341 | 32.13223 | 32076 ft | 446 kts | 311° |
| 2026-04-27 15:13 | 37.74475 | 32.07397 | 32076 ft | 445 kts | 311° |
| 2026-04-27 15:13 | 37.78600 | 32.01571 | 32083 ft | 444 kts | 311° |
| 2026-04-27 15:14 | 37.82718 | 31.95757 | 32094 ft | 444 kts | 311° |
| 2026-04-27 15:14 | 37.86838 | 31.89934 | 32071 ft | 445 kts | 311° |
| 2026-04-27 15:15 | 37.90962 | 31.84094 | 32072 ft | 445 kts | 311° |
| 2026-04-27 15:15 | 37.95084 | 31.78248 | 32082 ft | 445 kts | 311° |
| 2026-04-27 15:16 | 37.99199 | 31.72398 | 32077 ft | 445 kts | 311° |
| 2026-04-27 15:16 | 38.03314 | 31.66529 | 32065 ft | 446 kts | 311° |
| 2026-04-27 15:17 | 38.07433 | 31.60644 | 32066 ft | 446 kts | 311° |
| 2026-04-27 15:17 | 38.11557 | 31.54750 | 32073 ft | 447 kts | 311° |
| 2026-04-27 15:18 | 38.15654 | 31.48879 | 32073 ft | 447 kts | 311° |
| 2026-04-27 15:18 | 38.19779 | 31.42956 | 32073 ft | 448 kts | 311° |
| 2026-04-27 15:19 | 38.23906 | 31.37023 | 32067 ft | 448 kts | 311° |
| 2026-04-27 15:19 | 38.28029 | 31.31083 | 32081 ft | 448 kts | 311° |
| 2026-04-27 15:20 | 38.32154 | 31.25139 | 32078 ft | 448 kts | 311° |
| 2026-04-27 15:20 | 38.36268 | 31.19195 | 32075 ft | 447 kts | 311° |
| 2026-04-27 15:21 | 38.40374 | 31.13246 | 32077 ft | 447 kts | 311° |
| 2026-04-27 15:21 | 38.44467 | 31.07294 | 32077 ft | 446 kts | 311° |
| 2026-04-27 15:22 | 38.48726 | 31.01541 | 32060 ft | 446 kts | 320° |
| 2026-04-27 15:22 | 38.52915 | 30.97706 | 32067 ft | 446 kts | 325° |
| 2026-04-27 15:23 | 38.58021 | 30.93196 | 32066 ft | 446 kts | 325° |
| 2026-04-27 15:23 | 38.63123 | 30.88670 | 32069 ft | 446 kts | 325° |
| 2026-04-27 15:24 | 38.68218 | 30.84144 | 32065 ft | 446 kts | 325° |
| 2026-04-27 15:24 | 38.73322 | 30.79612 | 32067 ft | 446 kts | 325° |
| 2026-04-27 15:25 | 38.78423 | 30.75078 | 32067 ft | 446 kts | 325° |
| 2026-04-27 15:25 | 38.83518 | 30.70531 | 32066 ft | 446 kts | 324° |
| 2026-04-27 15:26 | 38.88916 | 30.66609 | 32069 ft | 446 kts | 333° |
| 2026-04-27 15:26 | 38.94459 | 30.63015 | 32082 ft | 447 kts | 333° |
| 2026-04-27 15:27 | 39.00003 | 30.59406 | 32078 ft | 447 kts | 332° |
| 2026-04-27 15:27 | 39.05544 | 30.55788 | 32078 ft | 447 kts | 332° |
| 2026-04-27 15:28 | 39.11087 | 30.52159 | 32079 ft | 447 kts | 332° |
| 2026-04-27 15:28 | 39.16590 | 30.48553 | 32090 ft | 447 kts | 332° |
| 2026-04-27 15:29 | 39.22130 | 30.44923 | 32097 ft | 447 kts | 332° |
| 2026-04-27 15:29 | 39.27705 | 30.41256 | 32109 ft | 446 kts | 332° |
| 2026-04-27 15:30 | 39.33231 | 30.37618 | 32108 ft | 446 kts | 332° |
| 2026-04-27 15:30 | 39.38718 | 30.34005 | 32114 ft | 446 kts | 332° |
| 2026-04-27 15:31 | 39.44239 | 30.30356 | 32115 ft | 445 kts | 332° |
| 2026-04-27 15:31 | 39.49753 | 30.26699 | 32119 ft | 445 kts | 332° |
| 2026-04-27 15:32 | 39.55409 | 30.23413 | 32118 ft | 446 kts | 336° |
| 2026-04-27 15:32 | 39.61192 | 30.20481 | 32118 ft | 447 kts | 337° |
| 2026-04-27 15:33 | 39.66973 | 30.17536 | 32126 ft | 446 kts | 336° |
| 2026-04-27 15:33 | 39.72712 | 30.14473 | 32128 ft | 446 kts | 335° |
| 2026-04-27 15:34 | 39.78443 | 30.11368 | 32125 ft | 446 kts | 336° |
| 2026-04-27 15:34 | 39.84180 | 30.08276 | 32138 ft | 447 kts | 335° |
| 2026-04-27 15:35 | 39.89927 | 30.05191 | 32146 ft | 447 kts | 336° |
| 2026-04-27 15:35 | 39.95640 | 30.02116 | 32149 ft | 447 kts | 335° |
| 2026-04-27 15:36 | 40.01392 | 29.99007 | 32147 ft | 448 kts | 335° |
| 2026-04-27 15:36 | 40.07151 | 29.95885 | 32150 ft | 448 kts | 335° |
| 2026-04-27 15:37 | 40.12915 | 29.92760 | 32147 ft | 449 kts | 335° |
| 2026-04-27 15:37 | 40.18678 | 29.89626 | 32153 ft | 449 kts | 335° |
| 2026-04-27 15:38 | 40.24448 | 29.86491 | 32151 ft | 449 kts | 335° |
| 2026-04-27 15:38 | 40.30216 | 29.83356 | 32148 ft | 449 kts | 335° |
| 2026-04-27 15:39 | 40.35980 | 29.80202 | 32149 ft | 449 kts | 335° |
| 2026-04-27 15:39 | 40.41747 | 29.77047 | 32158 ft | 449 kts | 335° |
| 2026-04-27 15:40 | 40.47510 | 29.73891 | 32172 ft | 449 kts | 335° |
| 2026-04-27 15:40 | 40.53273 | 29.70722 | 32178 ft | 449 kts | 335° |
| 2026-04-27 15:41 | 40.59034 | 29.67552 | 32192 ft | 449 kts | 335° |
| 2026-04-27 15:41 | 40.64770 | 29.64319 | 32205 ft | 447 kts | 330° |
| 2026-04-27 15:42 | 40.69859 | 29.59726 | 32197 ft | 443 kts | 319° |
| 2026-04-27 15:42 | 40.74632 | 29.54692 | 32208 ft | 442 kts | 319° |
| 2026-04-27 15:43 | 40.79447 | 29.49631 | 32214 ft | 442 kts | 319° |
| 2026-04-27 15:43 | 40.84256 | 29.44561 | 32215 ft | 442 kts | 319° |
| 2026-04-27 15:44 | 40.89053 | 29.39478 | 32220 ft | 442 kts | 319° |
| 2026-04-27 15:44 | 40.93848 | 29.34389 | 32216 ft | 442 kts | 319° |
| 2026-04-27 15:45 | 40.98642 | 29.29300 | 32210 ft | 442 kts | 319° |
| 2026-04-27 15:45 | 41.03435 | 29.24197 | 32218 ft | 442 kts | 319° |
| 2026-04-27 15:46 | 41.08222 | 29.19084 | 32215 ft | 442 kts | 319° |
| 2026-04-27 15:46 | 41.12805 | 29.13679 | 32213 ft | 439 kts | 308° |
| 2026-04-27 15:47 | 41.16316 | 29.07101 | 32221 ft | 437 kts | 302° |
| 2026-04-27 15:47 | 41.19680 | 29.00381 | 32230 ft | 437 kts | 302° |
| 2026-04-27 15:48 | 41.23047 | 28.93652 | 32239 ft | 437 kts | 302° |
| 2026-04-27 15:49 | 41.28080 | 28.83544 | 32239 ft | 437 kts | 301° |
| 2026-04-27 15:49 | 41.31428 | 28.76801 | 32239 ft | 437 kts | 302° |
| 2026-04-27 15:50 | 41.34777 | 28.70049 | 32244 ft | 437 kts | 302° |
| 2026-04-27 15:50 | 41.38124 | 28.63288 | 32242 ft | 437 kts | 302° |
| 2026-04-27 15:51 | 41.41465 | 28.56527 | 32239 ft | 437 kts | 302° |
| 2026-04-27 15:51 | 41.44795 | 28.49769 | 32236 ft | 437 kts | 301° |